sensor_id;sensor_type;location;lat;lon;timestamp;pressure;altitude;pressure_sealevel;temperature;humidity
6668;BME280;3370;47.712;9.082;2023-03-01T00:01:04;97551.06;;;-0.12;77.58
6668;BME280;3370;47.712;9.082;2023-03-01T00:03:31;97549.38;;;-0.13;77.67
6668;BME280;3370;47.712;9.082;2023-03-01T00:05:57;97549.38;;;-0.13;77.77
6668;BME280;3370;47.712;9.082;2023-03-01T00:08:24;97549.41;;;-0.09;77.68
6668;BME280;3370;47.712;9.082;2023-03-01T00:10:49;97545.22;;;-0.05;77.44
6668;BME280;3370;47.712;9.082;2023-03-01T00:13:15;97546.06;;;0.03;76.92
6668;BME280;3370;47.712;9.082;2023-03-01T00:15:41;97546.91;;;0.05;76.58
6668;BME280;3370;47.712;9.082;2023-03-01T00:18:08;97540.22;;;0.10;76.29
6668;BME280;3370;47.712;9.082;2023-03-01T00:20:34;97540.22;;;0.10;76.71
6668;BME280;3370;47.712;9.082;2023-03-01T00:23:00;97539.31;;;0.04;76.75
6668;BME280;3370;47.712;9.082;2023-03-01T00:25:26;97541.03;;;0.06;77.11
6668;BME280;3370;47.712;9.082;2023-03-01T00:27:51;97538.53;;;0.09;77.08
6668;BME280;3370;47.712;9.082;2023-03-01T00:30:17;97538.53;;;0.12;77.06
6668;BME280;3370;47.712;9.082;2023-03-01T00:32:43;97535.19;;;0.16;76.67
6668;BME280;3370;47.712;9.082;2023-03-01T00:35:09;97531.81;;;0.17;76.31
6668;BME280;3370;47.712;9.082;2023-03-01T00:37:35;97529.28;;;0.13;76.59
6668;BME280;3370;47.712;9.082;2023-03-01T00:40:00;97531.00;;;0.25;76.65
6668;BME280;3370;47.712;9.082;2023-03-01T00:42:27;97525.94;;;0.26;76.20
6668;BME280;3370;47.712;9.082;2023-03-01T00:44:53;97528.47;;;0.25;76.14
6668;BME280;3370;47.712;9.082;2023-03-01T00:47:19;97526.78;;;0.27;76.02
6668;BME280;3370;47.712;9.082;2023-03-01T00:49:44;97521.72;;;0.27;76.07
6668;BME280;3370;47.712;9.082;2023-03-01T00:52:10;97522.59;;;0.32;76.16
6668;BME280;3370;47.712;9.082;2023-03-01T00:54:36;97515.00;;;0.32;75.86
6668;BME280;3370;47.712;9.082;2023-03-01T00:57:02;97515.84;;;0.37;75.76
6668;BME280;3370;47.712;9.082;2023-03-01T00:59:27;97523.44;;;0.37;75.74
6668;BME280;3370;47.712;9.082;2023-03-01T01:01:53;97521.78;;;0.41;75.60
6668;BME280;3370;47.712;9.082;2023-03-01T01:04:19;97515.00;;;0.32;76.21
6668;BME280;3370;47.712;9.082;2023-03-01T01:06:46;97504.88;;;0.32;76.67
6668;BME280;3370;47.712;9.082;2023-03-01T01:09:16;97504.06;;;0.39;76.30
6668;BME280;3370;47.712;9.082;2023-03-01T01:11:44;97493.09;;;0.46;75.61
6668;BME280;3370;47.712;9.082;2023-03-01T01:14:11;97494.78;;;0.44;75.47
6668;BME280;3370;47.712;9.082;2023-03-01T01:16:37;97487.19;;;0.43;75.35
6668;BME280;3370;47.712;9.082;2023-03-01T01:19:03;97492.25;;;0.41;75.78
6668;BME280;3370;47.712;9.082;2023-03-01T01:21:30;97490.56;;;0.45;75.99
6668;BME280;3370;47.712;9.082;2023-03-01T01:23:56;97475.41;;;0.46;75.84
6668;BME280;3370;47.712;9.082;2023-03-01T01:26:26;97484.66;;;0.41;76.01
6668;BME280;3370;47.712;9.082;2023-03-01T01:28:53;97475.38;;;0.42;76.16
6668;BME280;3370;47.712;9.082;2023-03-01T01:31:19;97471.19;;;0.42;76.08
6668;BME280;3370;47.712;9.082;2023-03-01T01:33:45;97472.03;;;0.44;76.02
6668;BME280;3370;47.712;9.082;2023-03-01T01:36:12;97471.16;;;0.39;76.63
6668;BME280;3370;47.712;9.082;2023-03-01T01:38:39;97469.47;;;0.41;76.68
6668;BME280;3370;47.712;9.082;2023-03-01T01:41:06;97467.81;;;0.46;76.40
6668;BME280;3370;47.712;9.082;2023-03-01T01:44:13;97461.91;;;0.47;76.39
6668;BME280;3370;47.712;9.082;2023-03-01T01:49:49;97461.94;;;0.58;75.81
6668;BME280;3370;47.712;9.082;2023-03-01T01:52:19;97449.25;;;0.53;75.70
6668;BME280;3370;47.712;9.082;2023-03-01T01:57:53;97460.22;;;0.48;76.61
6668;BME280;3370;47.712;9.082;2023-03-01T02:00:27;97456.03;;;0.61;75.93
6668;BME280;3370;47.712;9.082;2023-03-01T02:03:28;97443.34;;;0.59;75.71
6668;BME280;3370;47.712;9.082;2023-03-01T02:06:06;97441.66;;;0.53;76.29
6668;BME280;3370;47.712;9.082;2023-03-01T02:08:38;97441.66;;;0.60;75.93
6668;BME280;3370;47.712;9.082;2023-03-01T02:11:07;97445.03;;;0.55;76.03
6668;BME280;3370;47.712;9.082;2023-03-01T02:13:34;97435.78;;;0.59;75.86
6668;BME280;3370;47.712;9.082;2023-03-01T02:16:12;97433.25;;;0.61;76.03
6668;BME280;3370;47.712;9.082;2023-03-01T02:18:40;97437.47;;;0.59;75.84
6668;BME280;3370;47.712;9.082;2023-03-01T02:23:50;97423.97;;;0.55;76.04
6668;BME280;3370;47.712;9.082;2023-03-01T02:26:21;97430.72;;;0.61;76.42
6668;BME280;3370;47.712;9.082;2023-03-01T02:28:50;97427.34;;;0.57;76.26
6668;BME280;3370;47.712;9.082;2023-03-01T02:31:19;97423.97;;;0.53;76.32
6668;BME280;3370;47.712;9.082;2023-03-01T02:34:05;97423.94;;;0.49;76.61
6668;BME280;3370;47.712;9.082;2023-03-01T02:36:37;97424.81;;;0.59;76.19
6668;BME280;3370;47.712;9.082;2023-03-01T02:39:08;97419.75;;;0.57;76.70
6668;BME280;3370;47.712;9.082;2023-03-01T02:41:43;97422.25;;;0.55;77.00
6668;BME280;3370;47.712;9.082;2023-03-01T02:44:09;97420.56;;;0.65;76.67
6668;BME280;3370;47.712;9.082;2023-03-01T02:46:46;97419.72;;;0.63;76.69
6668;BME280;3370;47.712;9.082;2023-03-01T02:49:31;97418.88;;;0.60;76.58
6668;BME280;3370;47.712;9.082;2023-03-01T02:55:15;97396.97;;;0.60;76.31
6668;BME280;3370;47.712;9.082;2023-03-01T02:57:45;97407.09;;;0.60;76.43
6668;BME280;3370;47.712;9.082;2023-03-01T03:00:13;97410.47;;;0.61;76.58
6668;BME280;3370;47.712;9.082;2023-03-01T03:02:50;97407.94;;;0.61;76.60
6668;BME280;3370;47.712;9.082;2023-03-01T03:05:22;97402.03;;;0.69;76.33
6668;BME280;3370;47.712;9.082;2023-03-01T03:07:49;97393.59;;;0.72;75.85
6668;BME280;3370;47.712;9.082;2023-03-01T03:13:00;97400.31;;;0.65;76.29
6668;BME280;3370;47.712;9.082;2023-03-01T03:15:28;97403.72;;;0.63;76.06
6668;BME280;3370;47.712;9.082;2023-03-01T03:17:55;97396.94;;;0.62;76.45
6668;BME280;3370;47.712;9.082;2023-03-01T03:20:25;97396.13;;;0.56;76.48
6668;BME280;3370;47.712;9.082;2023-03-01T03:22:55;97402.03;;;0.55;76.72
6668;BME280;3370;47.712;9.082;2023-03-01T03:25:22;97394.44;;;0.59;76.70
6668;BME280;3370;47.712;9.082;2023-03-01T03:27:50;97390.19;;;0.67;76.79
6668;BME280;3370;47.712;9.082;2023-03-01T03:30:23;97389.34;;;0.63;76.61
6668;BME280;3370;47.712;9.082;2023-03-01T03:32:49;97387.66;;;0.65;76.48
6668;BME280;3370;47.712;9.082;2023-03-01T03:35:32;97396.94;;;0.62;76.63
6668;BME280;3370;47.712;9.082;2023-03-01T03:38:05;97385.16;;;0.61;76.44
6668;BME280;3370;47.712;9.082;2023-03-01T03:40:41;97396.94;;;0.63;76.32
6668;BME280;3370;47.712;9.082;2023-03-01T03:43:14;97393.59;;;0.63;76.29
6668;BME280;3370;47.712;9.082;2023-03-01T03:45:40;97393.59;;;0.61;76.37
6668;BME280;3370;47.712;9.082;2023-03-01T03:48:09;97397.81;;;0.61;76.40
6668;BME280;3370;47.712;9.082;2023-03-01T03:50:37;97400.34;;;0.61;76.50
6668;BME280;3370;47.712;9.082;2023-03-01T03:53:07;97385.16;;;0.61;76.25
6668;BME280;3370;47.712;9.082;2023-03-01T03:55:34;97396.94;;;0.62;76.12
6668;BME280;3370;47.712;9.082;2023-03-01T03:58:02;97385.13;;;0.65;76.25
6668;BME280;3370;47.712;9.082;2023-03-01T04:00:42;97385.16;;;0.61;76.47
6668;BME280;3370;47.712;9.082;2023-03-01T04:03:10;97386.84;;;0.54;77.18
6668;BME280;3370;47.712;9.082;2023-03-01T04:05:37;97386.84;;;0.55;77.14
6668;BME280;3370;47.712;9.082;2023-03-01T04:08:03;97386.84;;;0.63;76.96
6668;BME280;3370;47.712;9.082;2023-03-01T04:10:45;97368.28;;;0.63;76.83
6668;BME280;3370;47.712;9.082;2023-03-01T04:13:21;97380.94;;;0.63;76.95
6668;BME280;3370;47.712;9.082;2023-03-01T04:15:52;97376.72;;;0.55;77.05
6668;BME280;3370;47.712;9.082;2023-03-01T04:18:22;97381.78;;;0.55;77.13
6668;BME280;3370;47.712;9.082;2023-03-01T04:20:48;97377.56;;;0.56;77.29
6668;BME280;3370;47.712;9.082;2023-03-01T04:23:17;97378.41;;;0.56;77.24
6668;BME280;3370;47.712;9.082;2023-03-01T04:25:53;97375.88;;;0.60;77.04
6668;BME280;3370;47.712;9.082;2023-03-01T04:28:31;97369.13;;;0.57;77.29
6668;BME280;3370;47.712;9.082;2023-03-01T04:31:07;97368.28;;;0.66;76.68
6668;BME280;3370;47.712;9.082;2023-03-01T04:33:46;97364.91;;;0.61;76.62
6668;BME280;3370;47.712;9.082;2023-03-01T04:36:16;97378.41;;;0.63;76.66
6668;BME280;3370;47.712;9.082;2023-03-01T04:38:43;97365.75;;;0.61;76.87
6668;BME280;3370;47.712;9.082;2023-03-01T04:41:14;97376.72;;;0.59;76.70
6668;BME280;3370;47.712;9.082;2023-03-01T04:43:40;97371.66;;;0.59;77.11
6668;BME280;3370;47.712;9.082;2023-03-01T04:46:10;97369.13;;;0.57;77.13
6668;BME280;3370;47.712;9.082;2023-03-01T04:48:39;97371.66;;;0.55;77.26
6668;BME280;3370;47.712;9.082;2023-03-01T04:51:05;97366.59;;;0.54;77.42
6668;BME280;3370;47.712;9.082;2023-03-01T04:53:32;97370.81;;;0.55;77.23
6668;BME280;3370;47.712;9.082;2023-03-01T04:55:59;97370.81;;;0.56;77.57
6668;BME280;3370;47.712;9.082;2023-03-01T04:58:28;97366.59;;;0.65;76.90
6668;BME280;3370;47.712;9.082;2023-03-01T05:00:54;97368.28;;;0.60;77.11
6668;BME280;3370;47.712;9.082;2023-03-01T05:03:21;97359.84;;;0.64;76.87
6668;BME280;3370;47.712;9.082;2023-03-01T05:05:50;97359.81;;;0.76;76.31
6668;BME280;3370;47.712;9.082;2023-03-01T05:08:16;97358.16;;;0.66;76.81
6668;BME280;3370;47.712;9.082;2023-03-01T05:10:51;97354.78;;;0.62;77.25
6668;BME280;3370;47.712;9.082;2023-03-01T05:13:18;97345.53;;;0.58;77.73
6668;BME280;3370;47.712;9.082;2023-03-01T05:15:56;97356.47;;;0.55;77.70
6668;BME280;3370;47.712;9.082;2023-03-01T05:18:23;97350.59;;;0.58;77.35
6668;BME280;3370;47.712;9.082;2023-03-01T05:20:56;97348.03;;;0.55;77.36
6668;BME280;3370;47.712;9.082;2023-03-01T05:23:26;97351.41;;;0.57;77.79
6668;BME280;3370;47.712;9.082;2023-03-01T05:25:52;97342.97;;;0.63;77.38
6668;BME280;3370;47.712;9.082;2023-03-01T05:28:19;97352.25;;;0.59;77.46
6668;BME280;3370;47.712;9.082;2023-03-01T05:30:46;97356.50;;;0.60;77.50
6668;BME280;3370;47.712;9.082;2023-03-01T05:33:12;97350.59;;;0.56;77.77
6668;BME280;3370;47.712;9.082;2023-03-01T05:35:42;97351.41;;;0.62;77.42
6668;BME280;3370;47.712;9.082;2023-03-01T05:38:12;97345.50;;;0.52;77.65
6668;BME280;3370;47.712;9.082;2023-03-01T05:40:43;97347.22;;;0.53;77.74
6668;BME280;3370;47.712;9.082;2023-03-01T05:43:10;97341.31;;;0.59;77.49
6668;BME280;3370;47.712;9.082;2023-03-01T05:45:39;97342.13;;;0.56;77.83
6668;BME280;3370;47.712;9.082;2023-03-01T05:48:07;97332.88;;;0.56;77.61
6668;BME280;3370;47.712;9.082;2023-03-01T05:50:42;97331.16;;;0.57;77.70
6668;BME280;3370;47.712;9.082;2023-03-01T05:53:15;97325.28;;;0.58;77.98
6668;BME280;3370;47.712;9.082;2023-03-01T05:55:42;97322.75;;;0.53;78.03
6668;BME280;3370;47.712;9.082;2023-03-01T05:58:14;97322.75;;;0.58;77.82
6668;BME280;3370;47.712;9.082;2023-03-01T06:00:41;97321.88;;;0.61;77.61
6668;BME280;3370;47.712;9.082;2023-03-01T06:03:11;97327.81;;;0.56;77.91
6668;BME280;3370;47.712;9.082;2023-03-01T06:05:37;97327.81;;;0.53;78.17
6668;BME280;3370;47.712;9.082;2023-03-01T06:08:07;97324.41;;;0.57;77.83
6668;BME280;3370;47.712;9.082;2023-03-01T06:10:34;97324.41;;;0.57;77.88
6668;BME280;3370;47.712;9.082;2023-03-01T06:13:00;97328.63;;;0.57;77.86
6668;BME280;3370;47.712;9.082;2023-03-01T06:15:26;97321.03;;;0.65;77.55
6668;BME280;3370;47.712;9.082;2023-03-01T06:17:54;97328.59;;;0.72;77.42
6668;BME280;3370;47.712;9.082;2023-03-01T06:20:25;97324.44;;;0.64;77.51
6668;BME280;3370;47.712;9.082;2023-03-01T06:22:51;97327.78;;;0.63;77.75
6668;BME280;3370;47.712;9.082;2023-03-01T06:25:21;97332.00;;;0.61;77.90
6668;BME280;3370;47.712;9.082;2023-03-01T06:27:48;97331.16;;;0.63;77.87
6668;BME280;3370;47.712;9.082;2023-03-01T06:30:17;97331.19;;;0.60;78.09
6668;BME280;3370;47.712;9.082;2023-03-01T06:32:43;97334.53;;;0.61;78.05
6668;BME280;3370;47.712;9.082;2023-03-01T06:35:12;97331.16;;;0.62;77.92
6668;BME280;3370;47.712;9.082;2023-03-01T06:37:38;97332.84;;;0.63;78.10
6668;BME280;3370;47.712;9.082;2023-03-01T06:40:06;97326.97;;;0.64;77.99
6668;BME280;3370;47.712;9.082;2023-03-01T06:42:38;97326.09;;;0.68;77.91
6668;BME280;3370;47.712;9.082;2023-03-01T06:45:06;97326.09;;;0.71;77.57
6668;BME280;3370;47.712;9.082;2023-03-01T06:47:32;97334.56;;;0.64;77.95
6668;BME280;3370;47.712;9.082;2023-03-01T06:49:59;97321.88;;;0.65;77.86
6668;BME280;3370;47.712;9.082;2023-03-01T06:52:25;97330.31;;;0.66;78.04
6668;BME280;3370;47.712;9.082;2023-03-01T06:54:52;97329.47;;;0.70;77.79
6668;BME280;3370;47.712;9.082;2023-03-01T06:57:18;97332.81;;;0.69;77.67
6668;BME280;3370;47.712;9.082;2023-03-01T06:59:44;97333.69;;;0.71;78.10
6668;BME280;3370;47.712;9.082;2023-03-01T07:02:11;97334.53;;;0.70;77.76
6668;BME280;3370;47.712;9.082;2023-03-01T07:04:38;97338.75;;;0.66;77.90
6668;BME280;3370;47.712;9.082;2023-03-01T07:07:04;97332.84;;;0.66;78.21
6668;BME280;3370;47.712;9.082;2023-03-01T07:09:30;97341.28;;;0.68;77.98
6668;BME280;3370;47.712;9.082;2023-03-01T07:11:56;97329.47;;;0.70;77.62
6668;BME280;3370;47.712;9.082;2023-03-01T07:14:22;97331.13;;;0.72;77.68
6668;BME280;3370;47.712;9.082;2023-03-01T07:16:50;97332.84;;;0.72;77.61
6668;BME280;3370;47.712;9.082;2023-03-01T07:19:16;97326.09;;;0.80;77.14
6668;BME280;3370;47.712;9.082;2023-03-01T07:21:42;97333.66;;;0.75;77.42
6668;BME280;3370;47.712;9.082;2023-03-01T07:24:09;97327.78;;;0.72;77.70
6668;BME280;3370;47.712;9.082;2023-03-01T07:26:35;97335.34;;;0.69;77.60
6668;BME280;3370;47.712;9.082;2023-03-01T07:29:07;97332.00;;;0.73;77.51
6668;BME280;3370;47.712;9.082;2023-03-01T07:31:35;97328.63;;;0.77;77.34
6668;BME280;3370;47.712;9.082;2023-03-01T07:34:02;97334.50;;;0.76;77.08
6668;BME280;3370;47.712;9.082;2023-03-01T07:36:28;97332.84;;;0.78;76.90
6668;BME280;3370;47.712;9.082;2023-03-01T07:38:54;97334.50;;;0.79;76.89
6668;BME280;3370;47.712;9.082;2023-03-01T07:41:21;97324.38;;;0.82;76.68
6668;BME280;3370;47.712;9.082;2023-03-01T07:43:47;97321.84;;;0.76;77.25
6668;BME280;3370;47.712;9.082;2023-03-01T07:46:13;97323.53;;;0.74;77.23
6668;BME280;3370;47.712;9.082;2023-03-01T07:48:39;97318.50;;;0.77;77.01
6668;BME280;3370;47.712;9.082;2023-03-01T07:51:06;97316.75;;;0.88;76.58
6668;BME280;3370;47.712;9.082;2023-03-01T07:53:33;97310.88;;;0.83;76.78
6668;BME280;3370;47.712;9.082;2023-03-01T07:56:14;97317.66;;;0.78;76.78
6668;BME280;3370;47.712;9.082;2023-03-01T07:58:43;97312.59;;;0.78;76.66
6668;BME280;3370;47.712;9.082;2023-03-01T08:01:14;97318.47;;;0.85;76.77
6668;BME280;3370;47.712;9.082;2023-03-01T08:03:40;97314.25;;;0.85;76.28
6668;BME280;3370;47.712;9.082;2023-03-01T08:06:09;97316.75;;;0.87;76.72
6668;BME280;3370;47.712;9.082;2023-03-01T08:08:36;97317.63;;;0.84;76.80
6668;BME280;3370;47.712;9.082;2023-03-01T08:11:05;97312.53;;;0.90;76.39
6668;BME280;3370;47.712;9.082;2023-03-01T08:13:32;97312.56;;;0.87;76.56
6668;BME280;3370;47.712;9.082;2023-03-01T08:16:13;97306.66;;;0.84;76.52
6668;BME280;3370;47.712;9.082;2023-03-01T08:18:40;97313.41;;;0.86;76.44
6668;BME280;3370;47.712;9.082;2023-03-01T08:21:10;97310.84;;;0.92;76.61
6668;BME280;3370;47.712;9.082;2023-03-01T08:23:36;97310.00;;;0.97;76.14
6668;BME280;3370;47.712;9.082;2023-03-01T08:26:14;97305.78;;;0.95;76.29
6668;BME280;3370;47.712;9.082;2023-03-01T08:28:41;97304.13;;;0.94;76.38
6668;BME280;3370;47.712;9.082;2023-03-01T08:33:46;97304.13;;;0.94;76.20
6668;BME280;3370;47.712;9.082;2023-03-01T08:36:16;97295.66;;;0.99;75.78
6668;BME280;3370;47.712;9.082;2023-03-01T08:38:42;97305.78;;;1.02;75.75
6668;BME280;3370;47.712;9.082;2023-03-01T08:41:09;97288.84;;;1.07;75.24
6668;BME280;3370;47.712;9.082;2023-03-01T08:43:34;97294.78;;;1.01;75.63
6668;BME280;3370;47.712;9.082;2023-03-01T08:46:00;97283.81;;;1.02;75.72
6668;BME280;3370;47.712;9.082;2023-03-01T08:48:28;97290.56;;;1.05;75.64
6668;BME280;3370;47.712;9.082;2023-03-01T08:50:53;97288.03;;;1.03;75.57
6668;BME280;3370;47.712;9.082;2023-03-01T08:53:19;97292.25;;;1.06;75.66
6668;BME280;3370;47.712;9.082;2023-03-01T08:55:45;97287.19;;;1.06;75.66
6668;BME280;3370;47.712;9.082;2023-03-01T08:58:11;97295.63;;;1.08;75.74
6668;BME280;3370;47.712;9.082;2023-03-01T09:00:38;97290.50;;;1.17;75.04
6668;BME280;3370;47.712;9.082;2023-03-01T09:03:04;97287.97;;;1.19;75.04
6668;BME280;3370;47.712;9.082;2023-03-01T09:05:33;97289.69;;;1.13;75.70
6668;BME280;3370;47.712;9.082;2023-03-01T09:07:59;97288.84;;;1.13;75.53
6668;BME280;3370;47.712;9.082;2023-03-01T09:10:25;97292.22;;;1.15;75.47
6668;BME280;3370;47.712;9.082;2023-03-01T09:12:51;97277.84;;;1.15;75.38
6668;BME280;3370;47.712;9.082;2023-03-01T09:15:17;97284.56;;;1.21;75.00
6668;BME280;3370;47.712;9.082;2023-03-01T09:17:43;97272.78;;;1.20;74.90
6668;BME280;3370;47.712;9.082;2023-03-01T09:20:10;97274.44;;;1.21;75.04
6668;BME280;3370;47.712;9.082;2023-03-01T09:22:36;97274.44;;;1.20;74.76
6668;BME280;3370;47.712;9.082;2023-03-01T09:25:02;97278.69;;;1.19;74.89
6668;BME280;3370;47.712;9.082;2023-03-01T09:27:28;97282.03;;;1.21;74.78
6668;BME280;3370;47.712;9.082;2023-03-01T09:29:53;97268.53;;;1.22;74.48
6668;BME280;3370;47.712;9.082;2023-03-01T09:32:22;97282.03;;;1.27;74.45
6668;BME280;3370;47.712;9.082;2023-03-01T09:34:48;97275.28;;;1.28;74.47
6668;BME280;3370;47.712;9.082;2023-03-01T09:37:35;97271.91;;;1.27;74.63
6668;BME280;3370;47.712;9.082;2023-03-01T09:40:03;97260.06;;;1.32;74.27
6668;BME280;3370;47.712;9.082;2023-03-01T09:42:34;97274.44;;;1.26;74.40
6668;BME280;3370;47.712;9.082;2023-03-01T09:45:27;97273.53;;;1.38;73.75
6668;BME280;3370;47.712;9.082;2023-03-01T09:47:54;97282.88;;;1.32;73.78
6668;BME280;3370;47.712;9.082;2023-03-01T09:50:21;97271.88;;;1.33;73.78
6668;BME280;3370;47.712;9.082;2023-03-01T09:56:04;97266.78;;;1.32;73.94
6668;BME280;3370;47.712;9.082;2023-03-01T10:01:35;97266.78;;;1.40;73.09
6668;BME280;3370;47.712;9.082;2023-03-01T10:04:23;97271.00;;;1.39;73.37
6668;BME280;3370;47.712;9.082;2023-03-01T10:07:21;97261.69;;;1.44;73.32
6668;BME280;3370;47.712;9.082;2023-03-01T10:09:50;97253.25;;;1.44;73.32
6668;BME280;3370;47.712;9.082;2023-03-01T10:12:24;97256.66;;;1.40;73.29
6668;BME280;3370;47.712;9.082;2023-03-01T10:15:16;97254.13;;;1.40;73.74
6668;BME280;3370;47.712;9.082;2023-03-01T10:18:00;97254.91;;;1.45;72.83
6668;BME280;3370;47.712;9.082;2023-03-01T10:20:55;97243.03;;;1.53;72.56
6668;BME280;3370;47.712;9.082;2023-03-01T10:23:28;97243.00;;;1.61;72.34
6668;BME280;3370;47.712;9.082;2023-03-01T10:26:35;97244.69;;;1.60;72.03
6668;BME280;3370;47.712;9.082;2023-03-01T10:29:14;97243.88;;;1.57;72.04
6668;BME280;3370;47.712;9.082;2023-03-01T10:31:49;97241.34;;;1.58;72.29
6668;BME280;3370;47.712;9.082;2023-03-01T10:34:32;97242.16;;;1.63;72.01
6668;BME280;3370;47.712;9.082;2023-03-01T10:37:20;97233.69;;;1.63;71.96
6668;BME280;3370;47.712;9.082;2023-03-01T10:40:10;97235.38;;;1.62;71.77
6668;BME280;3370;47.712;9.082;2023-03-01T10:42:40;97244.69;;;1.63;71.87
6668;BME280;3370;47.712;9.082;2023-03-01T10:45:38;97229.47;;;1.63;72.22
6668;BME280;3370;47.712;9.082;2023-03-01T10:48:22;97227.75;;;1.65;71.77
6668;BME280;3370;47.712;9.082;2023-03-01T10:53:35;97221.81;;;1.71;72.21
6668;BME280;3370;47.712;9.082;2023-03-01T10:56:08;97221.75;;;1.79;71.34
6668;BME280;3370;47.712;9.082;2023-03-01T10:58:38;97225.13;;;1.79;71.11
6668;BME280;3370;47.712;9.082;2023-03-01T11:01:23;97231.13;;;1.70;71.52
6668;BME280;3370;47.712;9.082;2023-03-01T11:06:31;97221.75;;;1.79;70.99
6668;BME280;3370;47.712;9.082;2023-03-01T11:08:57;97221.75;;;1.79;71.23
6668;BME280;3370;47.712;9.082;2023-03-01T11:11:38;97214.97;;;1.81;71.12
6668;BME280;3370;47.712;9.082;2023-03-01T11:14:35;97225.91;;;1.89;71.15
6668;BME280;3370;47.712;9.082;2023-03-01T11:17:28;97224.13;;;1.97;71.22
6668;BME280;3370;47.712;9.082;2023-03-01T11:20:22;97217.41;;;1.93;70.84
6668;BME280;3370;47.712;9.082;2023-03-01T11:22:54;97218.22;;;1.97;70.03
6668;BME280;3370;47.712;9.082;2023-03-01T11:25:29;97219.06;;;1.99;70.08
6668;BME280;3370;47.712;9.082;2023-03-01T11:27:59;97220.69;;;2.03;70.60
6668;BME280;3370;47.712;9.082;2023-03-01T11:30:33;97215.63;;;2.04;70.32
6668;BME280;3370;47.712;9.082;2023-03-01T11:33:39;97222.34;;;2.08;69.42
6668;BME280;3370;47.712;9.082;2023-03-01T11:36:25;97216.44;;;2.05;69.38
6668;BME280;3370;47.712;9.082;2023-03-01T11:38:55;97214.78;;;2.07;69.10
6668;BME280;3370;47.712;9.082;2023-03-01T11:41:28;97217.31;;;2.05;69.56
6668;BME280;3370;47.712;9.082;2023-03-01T11:44:14;97212.31;;;1.96;69.37
6668;BME280;3370;47.712;9.082;2023-03-01T11:47:25;97211.50;;;1.94;69.68
6668;BME280;3370;47.712;9.082;2023-03-01T11:50:03;97203.09;;;1.86;70.12
6668;BME280;3370;47.712;9.082;2023-03-01T11:53:19;97197.94;;;1.98;69.80
6668;BME280;3370;47.712;9.082;2023-03-01T12:05:44;97191.94;;;2.05;69.86
6668;BME280;3370;47.712;9.082;2023-03-01T12:08:31;97183.34;;;2.19;69.25
6668;BME280;3370;47.712;9.082;2023-03-01T12:17:32;97169.91;;;2.10;68.26
6668;BME280;3370;47.712;9.082;2023-03-01T12:43:15;97147.13;;;2.07;68.02
6668;BME280;3370;47.712;9.082;2023-03-01T12:51:34;97138.59;;;2.15;68.59
6668;BME280;3370;47.712;9.082;2023-03-01T12:54:16;97138.59;;;2.15;68.47
6668;BME280;3370;47.712;9.082;2023-03-01T12:56:42;97138.59;;;2.11;68.36
6668;BME280;3370;47.712;9.082;2023-03-01T12:59:28;97142.78;;;2.16;68.27
6668;BME280;3370;47.712;9.082;2023-03-01T13:02:30;97132.50;;;2.28;67.63
6668;BME280;3370;47.712;9.082;2023-03-01T13:10:46;97148.72;;;2.15;69.48
6668;BME280;3370;47.712;9.082;2023-03-01T13:13:25;97146.13;;;2.21;69.02
6668;BME280;3370;47.712;9.082;2023-03-01T13:15:53;97146.19;;;2.18;68.90
6668;BME280;3370;47.712;9.082;2023-03-01T13:20:56;97141.00;;;2.27;68.42
6668;BME280;3370;47.712;9.082;2023-03-01T13:26:17;97137.59;;;2.26;68.72
6668;BME280;3370;47.712;9.082;2023-03-01T13:28:54;97134.19;;;2.30;68.82
6668;BME280;3370;47.712;9.082;2023-03-01T13:33:54;97133.97;;;2.51;69.37
6668;BME280;3370;47.712;9.082;2023-03-01T13:36:48;97123.81;;;2.51;68.19
6668;BME280;3370;47.712;9.082;2023-03-01T13:39:31;97123.94;;;2.41;69.25
6668;BME280;3370;47.712;9.082;2023-03-01T13:42:03;97117.03;;;2.51;68.53
6668;BME280;3370;47.712;9.082;2023-03-01T13:44:49;97128.84;;;2.54;67.74
6668;BME280;3370;47.712;9.082;2023-03-01T13:47:18;97135.59;;;2.58;68.44
6668;BME280;3370;47.712;9.082;2023-03-01T13:49:47;97135.59;;;2.55;69.15
6668;BME280;3370;47.712;9.082;2023-03-01T13:52:40;97139.03;;;2.51;68.81
6668;BME280;3370;47.712;9.082;2023-03-01T13:55:26;97138.16;;;2.53;68.95
6668;BME280;3370;47.712;9.082;2023-03-01T13:57:58;97145.75;;;2.58;68.48
6668;BME280;3370;47.712;9.082;2023-03-01T14:00:35;97139.78;;;2.60;68.58
6668;BME280;3370;47.712;9.082;2023-03-01T14:05:35;97139.78;;;2.59;69.19
6668;BME280;3370;47.712;9.082;2023-03-01T14:08:03;97148.28;;;2.58;69.37
6668;BME280;3370;47.712;9.082;2023-03-01T14:10:42;97149.09;;;2.60;69.74
6668;BME280;3370;47.712;9.082;2023-03-01T14:13:27;97146.44;;;2.69;67.87
6668;BME280;3370;47.712;9.082;2023-03-01T14:16:29;97148.28;;;2.56;68.10
6668;BME280;3370;47.712;9.082;2023-03-01T14:19:19;97149.09;;;2.60;67.61
6668;BME280;3370;47.712;9.082;2023-03-01T14:24:58;97153.41;;;2.53;67.91
6668;BME280;3370;47.712;9.082;2023-03-01T14:27:38;97141.63;;;2.47;67.97
6668;BME280;3370;47.712;9.082;2023-03-01T14:30:52;97130.63;;;2.48;68.18
6668;BME280;3370;47.712;9.082;2023-03-01T14:33:34;97124.69;;;2.48;68.22
6668;BME280;3370;47.712;9.082;2023-03-01T14:36:11;97111.94;;;2.53;68.15
6668;BME280;3370;47.712;9.082;2023-03-01T14:38:43;97117.03;;;2.53;67.85
6668;BME280;3370;47.712;9.082;2023-03-01T14:43:57;97123.72;;;2.57;67.65
6668;BME280;3370;47.712;9.082;2023-03-01T14:46:33;97116.94;;;2.59;67.83
6668;BME280;3370;47.712;9.082;2023-03-01T14:49:21;97116.91;;;2.62;67.46
6668;BME280;3370;47.712;9.082;2023-03-01T14:52:04;97111.91;;;2.56;67.67
6668;BME280;3370;47.712;9.082;2023-03-01T14:54:44;97111.94;;;2.53;67.69
6668;BME280;3370;47.712;9.082;2023-03-01T14:57:24;97107.72;;;2.50;68.47
6668;BME280;3370;47.712;9.082;2023-03-01T14:59:53;97108.50;;;2.57;68.12
6668;BME280;3370;47.712;9.082;2023-03-01T15:02:29;97100.97;;;2.52;68.10
6668;BME280;3370;47.712;9.082;2023-03-01T15:05:03;97110.25;;;2.52;68.77
6668;BME280;3370;47.712;9.082;2023-03-01T15:07:38;97094.16;;;2.54;68.45
6668;BME280;3370;47.712;9.082;2023-03-01T15:10:07;97092.41;;;2.59;68.47
6668;BME280;3370;47.712;9.082;2023-03-01T15:12:41;97102.50;;;2.64;68.16
6668;BME280;3370;47.712;9.082;2023-03-01T15:15:45;97110.06;;;2.67;68.93
6668;BME280;3370;47.712;9.082;2023-03-01T15:18:26;97096.38;;;2.77;68.53
6668;BME280;3370;47.712;9.082;2023-03-01T15:20:54;97106.50;;;2.80;67.52
6668;BME280;3370;47.712;9.082;2023-03-01T15:23:26;97107.34;;;2.81;67.89
6668;BME280;3370;47.712;9.082;2023-03-01T15:25:54;97105.81;;;2.69;69.02
6668;BME280;3370;47.712;9.082;2023-03-01T15:28:28;97110.81;;;2.75;68.60
6668;BME280;3370;47.712;9.082;2023-03-01T15:31:21;97107.47;;;2.70;68.72
6668;BME280;3370;47.712;9.082;2023-03-01T15:33:47;97105.72;;;2.75;69.06
6668;BME280;3370;47.712;9.082;2023-03-01T15:47:54;97099.84;;;2.70;69.56